Terminal Aerodrome Forecast
Issued by NWS

Home | Current Version | Previous Version | Text Only | Print | Product List | Glossary On
Versions: 1 2 3 4 5 6 7 8 9 10 11 12 13 14 15 16 17 18 19 20 21 22 23 24 25 26
000
FTPQ31 PGUM 101340 AAJ
TAFGUM
TAF AMD

TAF AMD
PGSN 101340Z 1014/1112 04016KT P6SM FEW025 SCT050
     FM102000 04016KT P6SM VCSH FEW020 SCT040 BKN100
      TEMPO 1020/1024 -SHRA SCT016 BKN030=

USA.gov is the U.S. government's official web portal to all federal, state and local government web resources and services.